sensor_id;sensor_type;location;lat;lon;timestamp;P1;durP1;ratioP1;P2;durP2;ratioP2
69446;SDS011;56650;37.496;126.998;2022-07-23T00:02:23;19.48;;;12.32;;
69446;SDS011;56650;37.496;126.998;2022-07-23T00:04:50;20.13;;;13.60;;
69446;SDS011;56650;37.496;126.998;2022-07-23T00:07:16;20.98;;;14.75;;
69446;SDS011;56650;37.496;126.998;2022-07-23T00:09:42;21.60;;;13.70;;
69446;SDS011;56650;37.496;126.998;2022-07-23T00:12:09;18.40;;;12.88;;
69446;SDS011;56650;37.496;126.998;2022-07-23T00:14:35;21.40;;;13.85;;
69446;SDS011;56650;37.496;126.998;2022-07-23T00:17:01;19.95;;;13.75;;
69446;SDS011;56650;37.496;126.998;2022-07-23T00:19:27;21.10;;;14.40;;
69446;SDS011;56650;37.496;126.998;2022-07-23T00:21:54;21.13;;;13.90;;
69446;SDS011;56650;37.496;126.998;2022-07-23T00:24:20;18.52;;;12.85;;
69446;SDS011;56650;37.496;126.998;2022-07-23T00:26:47;21.00;;;14.15;;
69446;SDS011;56650;37.496;126.998;2022-07-23T00:29:13;18.55;;;12.38;;
69446;SDS011;56650;37.496;126.998;2022-07-23T00:31:39;20.83;;;15.05;;
69446;SDS011;56650;37.496;126.998;2022-07-23T00:34:06;22.58;;;14.98;;
69446;SDS011;56650;37.496;126.998;2022-07-23T00:36:32;21.33;;;13.43;;
69446;SDS011;56650;37.496;126.998;2022-07-23T00:38:59;21.20;;;13.63;;
69446;SDS011;56650;37.496;126.998;2022-07-23T00:41:25;19.65;;;13.20;;
69446;SDS011;56650;37.496;126.998;2022-07-23T00:43:51;21.13;;;14.45;;
69446;SDS011;56650;37.496;126.998;2022-07-23T00:46:21;21.95;;;14.00;;
69446;SDS011;56650;37.496;126.998;2022-07-23T00:48:47;23.42;;;14.93;;
69446;SDS011;56650;37.496;126.998;2022-07-23T00:51:17;21.38;;;14.88;;
69446;SDS011;56650;37.496;126.998;2022-07-23T00:53:43;22.70;;;15.05;;
69446;SDS011;56650;37.496;126.998;2022-07-23T00:58:35;22.40;;;13.25;;
69446;SDS011;56650;37.496;126.998;2022-07-23T01:01:01;22.05;;;14.57;;
69446;SDS011;56650;37.496;126.998;2022-07-23T01:05:53;20.00;;;13.38;;
69446;SDS011;56650;37.496;126.998;2022-07-23T01:10:46;21.77;;;14.05;;
69446;SDS011;56650;37.496;126.998;2022-07-23T01:13:13;21.80;;;14.15;;
69446;SDS011;56650;37.496;126.998;2022-07-23T01:15:39;22.05;;;14.07;;
69446;SDS011;56650;37.496;126.998;2022-07-23T01:18:06;24.02;;;15.32;;
69446;SDS011;56650;37.496;126.998;2022-07-23T01:20:33;21.40;;;14.90;;
69446;SDS011;56650;37.496;126.998;2022-07-23T01:22:59;25.08;;;16.58;;
69446;SDS011;56650;37.496;126.998;2022-07-23T01:25:25;21.08;;;13.82;;
69446;SDS011;56650;37.496;126.998;2022-07-23T01:27:52;25.60;;;16.15;;
69446;SDS011;56650;37.496;126.998;2022-07-23T01:30:19;22.00;;;14.60;;
69446;SDS011;56650;37.496;126.998;2022-07-23T01:32:45;22.42;;;15.52;;
69446;SDS011;56650;37.496;126.998;2022-07-23T01:35:11;25.77;;;16.58;;
69446;SDS011;56650;37.496;126.998;2022-07-23T01:37:38;28.50;;;17.63;;
69446;SDS011;56650;37.496;126.998;2022-07-23T01:40:04;26.00;;;17.30;;
69446;SDS011;56650;37.496;126.998;2022-07-23T01:42:31;27.42;;;17.38;;
69446;SDS011;56650;37.496;126.998;2022-07-23T01:44:57;25.70;;;15.90;;
69446;SDS011;56650;37.496;126.998;2022-07-23T01:47:23;28.80;;;17.45;;
69446;SDS011;56650;37.496;126.998;2022-07-23T01:49:50;24.80;;;16.58;;
69446;SDS011;56650;37.496;126.998;2022-07-23T01:52:16;26.90;;;17.67;;
69446;SDS011;56650;37.496;126.998;2022-07-23T01:54:42;29.35;;;18.10;;
69446;SDS011;56650;37.496;126.998;2022-07-23T01:59:34;21.48;;;14.68;;
69446;SDS011;56650;37.496;126.998;2022-07-23T02:02:01;31.90;;;18.25;;
69446;SDS011;56650;37.496;126.998;2022-07-23T02:04:29;27.60;;;17.25;;
69446;SDS011;56650;37.496;126.998;2022-07-23T02:06:55;26.40;;;17.75;;
69446;SDS011;56650;37.496;126.998;2022-07-23T02:09:22;24.38;;;16.52;;
69446;SDS011;56650;37.496;126.998;2022-07-23T02:11:49;23.52;;;15.57;;
69446;SDS011;56650;37.496;126.998;2022-07-23T02:14:15;26.25;;;16.38;;
69446;SDS011;56650;37.496;126.998;2022-07-23T02:16:42;26.33;;;16.27;;
69446;SDS011;56650;37.496;126.998;2022-07-23T02:19:08;23.88;;;15.95;;
69446;SDS011;56650;37.496;126.998;2022-07-23T02:21:34;26.80;;;17.08;;
69446;SDS011;56650;37.496;126.998;2022-07-23T02:24:01;23.13;;;15.27;;
69446;SDS011;56650;37.496;126.998;2022-07-23T02:26:27;21.75;;;14.63;;
69446;SDS011;56650;37.496;126.998;2022-07-23T02:28:53;24.63;;;15.20;;
69446;SDS011;56650;37.496;126.998;2022-07-23T02:31:20;22.65;;;15.43;;
69446;SDS011;56650;37.496;126.998;2022-07-23T02:36:11;24.73;;;16.52;;
69446;SDS011;56650;37.496;126.998;2022-07-23T02:38:38;26.67;;;17.45;;
69446;SDS011;56650;37.496;126.998;2022-07-23T02:41:04;25.45;;;16.70;;
69446;SDS011;56650;37.496;126.998;2022-07-23T02:43:30;25.65;;;17.05;;
69446;SDS011;56650;37.496;126.998;2022-07-23T02:45:56;26.58;;;17.45;;
69446;SDS011;56650;37.496;126.998;2022-07-23T02:48:23;27.55;;;16.67;;
69446;SDS011;56650;37.496;126.998;2022-07-23T02:50:49;27.48;;;17.55;;
69446;SDS011;56650;37.496;126.998;2022-07-23T02:53:17;26.50;;;16.77;;
69446;SDS011;56650;37.496;126.998;2022-07-23T02:55:43;22.63;;;15.35;;
69446;SDS011;56650;37.496;126.998;2022-07-23T02:58:09;26.15;;;16.83;;
69446;SDS011;56650;37.496;126.998;2022-07-23T03:00:35;26.27;;;17.38;;
69446;SDS011;56650;37.496;126.998;2022-07-23T03:03:02;25.80;;;16.08;;
69446;SDS011;56650;37.496;126.998;2022-07-23T03:05:28;25.38;;;16.05;;
69446;SDS011;56650;37.496;126.998;2022-07-23T03:07:54;24.88;;;16.33;;
69446;SDS011;56650;37.496;126.998;2022-07-23T03:10:20;24.02;;;17.05;;
69446;SDS011;56650;37.496;126.998;2022-07-23T03:12:47;26.33;;;16.75;;
69446;SDS011;56650;37.496;126.998;2022-07-23T03:15:13;25.33;;;17.65;;
69446;SDS011;56650;37.496;126.998;2022-07-23T03:17:39;24.88;;;17.15;;
69446;SDS011;56650;37.496;126.998;2022-07-23T03:20:05;26.25;;;16.67;;
69446;SDS011;56650;37.496;126.998;2022-07-23T03:22:32;28.48;;;18.45;;
69446;SDS011;56650;37.496;126.998;2022-07-23T03:24:58;27.75;;;17.73;;
69446;SDS011;56650;37.496;126.998;2022-07-23T03:27:25;26.00;;;17.30;;
69446;SDS011;56650;37.496;126.998;2022-07-23T03:29:53;25.05;;;16.48;;
69446;SDS011;56650;37.496;126.998;2022-07-23T03:32:19;27.27;;;16.48;;
69446;SDS011;56650;37.496;126.998;2022-07-23T03:34:46;24.92;;;16.65;;
69446;SDS011;56650;37.496;126.998;2022-07-23T03:37:12;23.05;;;14.73;;
69446;SDS011;56650;37.496;126.998;2022-07-23T03:39:38;20.95;;;13.80;;
69446;SDS011;56650;37.496;126.998;2022-07-23T03:44:30;21.42;;;14.27;;
69446;SDS011;56650;37.496;126.998;2022-07-23T03:46:56;21.38;;;14.38;;
69446;SDS011;56650;37.496;126.998;2022-07-23T03:49:23;21.48;;;14.20;;
69446;SDS011;56650;37.496;126.998;2022-07-23T03:51:49;19.67;;;13.85;;
69446;SDS011;56650;37.496;126.998;2022-07-23T03:54:15;20.75;;;13.70;;
69446;SDS011;56650;37.496;126.998;2022-07-23T03:56:41;20.80;;;14.55;;
69446;SDS011;56650;37.496;126.998;2022-07-23T04:01:33;20.55;;;13.38;;
69446;SDS011;56650;37.496;126.998;2022-07-23T04:06:25;20.20;;;14.05;;
69446;SDS011;56650;37.496;126.998;2022-07-23T04:08:52;24.08;;;15.07;;
69446;SDS011;56650;37.496;126.998;2022-07-23T04:11:18;21.45;;;13.63;;
69446;SDS011;56650;37.496;126.998;2022-07-23T04:16:10;19.40;;;13.45;;
69446;SDS011;56650;37.496;126.998;2022-07-23T04:18:36;20.65;;;14.10;;
69446;SDS011;56650;37.496;126.998;2022-07-23T04:21:02;20.90;;;14.07;;
69446;SDS011;56650;37.496;126.998;2022-07-23T04:23:28;21.48;;;14.70;;
69446;SDS011;56650;37.496;126.998;2022-07-23T04:25:55;20.17;;;13.70;;
69446;SDS011;56650;37.496;126.998;2022-07-23T04:28:21;22.67;;;14.68;;
69446;SDS011;56650;37.496;126.998;2022-07-23T04:30:47;20.80;;;14.02;;
69446;SDS011;56650;37.496;126.998;2022-07-23T04:35:39;22.73;;;14.60;;
69446;SDS011;56650;37.496;126.998;2022-07-23T04:40:31;19.35;;;13.00;;
69446;SDS011;56650;37.496;126.998;2022-07-23T04:42:57;20.40;;;14.15;;
69446;SDS011;56650;37.496;126.998;2022-07-23T04:45:24;21.10;;;14.68;;
69446;SDS011;56650;37.496;126.998;2022-07-23T04:47:50;22.27;;;13.75;;
69446;SDS011;56650;37.496;126.998;2022-07-23T04:50:17;20.10;;;13.52;;
69446;SDS011;56650;37.496;126.998;2022-07-23T04:52:49;19.30;;;13.57;;
69446;SDS011;56650;37.496;126.998;2022-07-23T04:55:16;19.15;;;13.10;;
69446;SDS011;56650;37.496;126.998;2022-07-23T04:57:42;19.85;;;13.63;;
69446;SDS011;56650;37.496;126.998;2022-07-23T05:02:34;18.65;;;13.20;;
69446;SDS011;56650;37.496;126.998;2022-07-23T05:05:00;19.67;;;13.45;;
69446;SDS011;56650;37.496;126.998;2022-07-23T05:07:26;19.33;;;13.50;;
69446;SDS011;56650;37.496;126.998;2022-07-23T05:09:52;21.35;;;14.20;;
69446;SDS011;56650;37.496;126.998;2022-07-23T05:12:19;19.00;;;13.95;;
69446;SDS011;56650;37.496;126.998;2022-07-23T05:14:45;19.17;;;13.35;;
69446;SDS011;56650;37.496;126.998;2022-07-23T05:17:11;19.10;;;13.38;;
69446;SDS011;56650;37.496;126.998;2022-07-23T05:19:37;17.48;;;13.10;;
69446;SDS011;56650;37.496;126.998;2022-07-23T05:22:03;21.90;;;14.77;;
69446;SDS011;56650;37.496;126.998;2022-07-23T05:24:30;21.27;;;14.32;;
69446;SDS011;56650;37.496;126.998;2022-07-23T05:26:56;19.75;;;13.63;;
69446;SDS011;56650;37.496;126.998;2022-07-23T05:29:22;20.13;;;13.18;;
69446;SDS011;56650;37.496;126.998;2022-07-23T05:31:48;21.38;;;14.55;;
69446;SDS011;56650;37.496;126.998;2022-07-23T05:34:15;20.75;;;14.27;;
69446;SDS011;56650;37.496;126.998;2022-07-23T05:36:41;20.30;;;13.70;;
69446;SDS011;56650;37.496;126.998;2022-07-23T05:39:07;20.58;;;14.05;;
69446;SDS011;56650;37.496;126.998;2022-07-23T05:41:34;21.23;;;14.63;;
69446;SDS011;56650;37.496;126.998;2022-07-23T05:44:00;20.52;;;13.80;;
69446;SDS011;56650;37.496;126.998;2022-07-23T05:48:52;19.80;;;14.27;;
69446;SDS011;56650;37.496;126.998;2022-07-23T05:51:21;20.10;;;13.80;;
69446;SDS011;56650;37.496;126.998;2022-07-23T05:53:48;20.63;;;14.73;;
69446;SDS011;56650;37.496;126.998;2022-07-23T05:58:40;18.95;;;13.10;;
69446;SDS011;56650;37.496;126.998;2022-07-23T06:01:06;23.20;;;15.60;;
69446;SDS011;56650;37.496;126.998;2022-07-23T06:03:33;22.52;;;14.70;;
69446;SDS011;56650;37.496;126.998;2022-07-23T06:05:59;21.42;;;15.20;;
69446;SDS011;56650;37.496;126.998;2022-07-23T06:08:25;21.08;;;14.50;;
69446;SDS011;56650;37.496;126.998;2022-07-23T06:13:17;21.50;;;15.27;;
69446;SDS011;56650;37.496;126.998;2022-07-23T06:15:44;25.55;;;15.00;;
69446;SDS011;56650;37.496;126.998;2022-07-23T06:18:10;20.95;;;14.30;;
69446;SDS011;56650;37.496;126.998;2022-07-23T06:20:36;21.02;;;14.50;;
69446;SDS011;56650;37.496;126.998;2022-07-23T06:23:03;19.70;;;13.65;;
69446;SDS011;56650;37.496;126.998;2022-07-23T06:25:29;19.70;;;14.18;;
69446;SDS011;56650;37.496;126.998;2022-07-23T06:27:55;20.35;;;13.55;;
69446;SDS011;56650;37.496;126.998;2022-07-23T06:30:22;20.45;;;13.85;;
69446;SDS011;56650;37.496;126.998;2022-07-23T06:32:48;20.83;;;14.45;;
69446;SDS011;56650;37.496;126.998;2022-07-23T06:35:15;20.88;;;13.95;;
69446;SDS011;56650;37.496;126.998;2022-07-23T06:37:41;21.73;;;15.40;;
69446;SDS011;56650;37.496;126.998;2022-07-23T06:40:08;19.88;;;13.60;;
69446;SDS011;56650;37.496;126.998;2022-07-23T06:45:03;19.73;;;13.93;;
69446;SDS011;56650;37.496;126.998;2022-07-23T06:47:29;19.42;;;12.82;;
69446;SDS011;56650;37.496;126.998;2022-07-23T06:49:55;18.80;;;13.45;;
69446;SDS011;56650;37.496;126.998;2022-07-23T06:52:21;17.45;;;12.73;;
69446;SDS011;56650;37.496;126.998;2022-07-23T06:54:47;19.83;;;13.65;;
69446;SDS011;56650;37.496;126.998;2022-07-23T06:57:14;19.08;;;13.50;;
69446;SDS011;56650;37.496;126.998;2022-07-23T07:02:07;18.45;;;11.98;;
69446;SDS011;56650;37.496;126.998;2022-07-23T07:04:33;18.60;;;13.07;;
69446;SDS011;56650;37.496;126.998;2022-07-23T07:09:25;18.95;;;13.63;;
69446;SDS011;56650;37.496;126.998;2022-07-23T07:11:52;19.08;;;13.05;;
69446;SDS011;56650;37.496;126.998;2022-07-23T07:14:18;19.55;;;13.60;;
69446;SDS011;56650;37.496;126.998;2022-07-23T07:16:44;20.02;;;14.13;;
69446;SDS011;56650;37.496;126.998;2022-07-23T07:19:10;21.95;;;14.32;;
69446;SDS011;56650;37.496;126.998;2022-07-23T07:21:37;18.50;;;13.18;;
69446;SDS011;56650;37.496;126.998;2022-07-23T07:24:03;19.45;;;12.77;;
69446;SDS011;56650;37.496;126.998;2022-07-23T07:28:56;18.50;;;13.73;;
69446;SDS011;56650;37.496;126.998;2022-07-23T07:31:22;19.00;;;13.45;;
69446;SDS011;56650;37.496;126.998;2022-07-23T07:33:49;18.75;;;13.18;;
69446;SDS011;56650;37.496;126.998;2022-07-23T07:38:41;20.52;;;13.25;;
69446;SDS011;56650;37.496;126.998;2022-07-23T07:41:07;20.95;;;13.13;;
69446;SDS011;56650;37.496;126.998;2022-07-23T07:43:35;19.77;;;14.05;;
69446;SDS011;56650;37.496;126.998;2022-07-23T07:46:02;19.63;;;14.30;;
69446;SDS011;56650;37.496;126.998;2022-07-23T07:48:29;21.60;;;14.10;;
69446;SDS011;56650;37.496;126.998;2022-07-23T07:50:55;18.92;;;12.55;;
69446;SDS011;56650;37.496;126.998;2022-07-23T07:53:21;17.40;;;12.35;;
69446;SDS011;56650;37.496;126.998;2022-07-23T07:55:47;18.13;;;12.75;;
69446;SDS011;56650;37.496;126.998;2022-07-23T07:58:14;19.13;;;13.07;;
69446;SDS011;56650;37.496;126.998;2022-07-23T08:00:40;18.35;;;12.13;;
69446;SDS011;56650;37.496;126.998;2022-07-23T08:03:06;18.38;;;12.85;;
69446;SDS011;56650;37.496;126.998;2022-07-23T08:05:32;17.38;;;12.82;;
69446;SDS011;56650;37.496;126.998;2022-07-23T08:07:59;18.63;;;12.98;;
69446;SDS011;56650;37.496;126.998;2022-07-23T08:10:30;20.05;;;13.27;;
69446;SDS011;56650;37.496;126.998;2022-07-23T08:12:58;20.00;;;14.00;;
69446;SDS011;56650;37.496;126.998;2022-07-23T08:15:26;18.05;;;12.68;;
69446;SDS011;56650;37.496;126.998;2022-07-23T08:17:53;18.25;;;13.13;;
69446;SDS011;56650;37.496;126.998;2022-07-23T08:20:20;20.75;;;13.02;;
69446;SDS011;56650;37.496;126.998;2022-07-23T08:22:51;20.48;;;14.05;;
69446;SDS011;56650;37.496;126.998;2022-07-23T08:25:36;19.90;;;12.80;;
69446;SDS011;56650;37.496;126.998;2022-07-23T08:28:03;19.38;;;13.40;;
69446;SDS011;56650;37.496;126.998;2022-07-23T08:30:30;17.13;;;12.88;;
69446;SDS011;56650;37.496;126.998;2022-07-23T08:32:58;19.02;;;12.85;;
69446;SDS011;56650;37.496;126.998;2022-07-23T08:35:31;17.20;;;12.18;;
69446;SDS011;56650;37.496;126.998;2022-07-23T08:37:58;18.80;;;13.13;;
69446;SDS011;56650;37.496;126.998;2022-07-23T08:40:29;18.77;;;13.45;;
69446;SDS011;56650;37.496;126.998;2022-07-23T08:42:55;17.40;;;12.50;;
69446;SDS011;56650;37.496;126.998;2022-07-23T08:45:23;17.80;;;13.07;;
69446;SDS011;56650;37.496;126.998;2022-07-23T08:47:53;17.45;;;12.18;;
69446;SDS011;56650;37.496;126.998;2022-07-23T08:50:21;18.80;;;12.15;;
69446;SDS011;56650;37.496;126.998;2022-07-23T08:52:51;18.95;;;12.27;;
69446;SDS011;56650;37.496;126.998;2022-07-23T08:57:47;18.30;;;12.48;;
69446;SDS011;56650;37.496;126.998;2022-07-23T09:00:14;17.85;;;11.90;;
69446;SDS011;56650;37.496;126.998;2022-07-23T09:02:40;16.45;;;11.40;;
69446;SDS011;56650;37.496;126.998;2022-07-23T09:05:10;16.80;;;11.30;;
69446;SDS011;56650;37.496;126.998;2022-07-23T09:07:38;18.33;;;12.35;;
69446;SDS011;56650;37.496;126.998;2022-07-23T09:10:08;16.95;;;12.05;;
69446;SDS011;56650;37.496;126.998;2022-07-23T09:12:35;16.30;;;12.02;;
69446;SDS011;56650;37.496;126.998;2022-07-23T09:15:04;17.10;;;11.30;;
69446;SDS011;56650;37.496;126.998;2022-07-23T09:17:36;16.67;;;11.75;;
69446;SDS011;56650;37.496;126.998;2022-07-23T09:20:09;17.25;;;11.50;;
69446;SDS011;56650;37.496;126.998;2022-07-23T09:22:35;18.42;;;12.13;;
69446;SDS011;56650;37.496;126.998;2022-07-23T09:25:17;16.70;;;11.65;;
69446;SDS011;56650;37.496;126.998;2022-07-23T09:27:56;16.90;;;11.75;;
69446;SDS011;56650;37.496;126.998;2022-07-23T09:30:23;16.52;;;11.60;;
69446;SDS011;56650;37.496;126.998;2022-07-23T09:36:14;18.45;;;12.40;;
69446;SDS011;56650;37.496;126.998;2022-07-23T09:38:24;18.20;;;11.77;;
69446;SDS011;56650;37.496;126.998;2022-07-23T09:41:09;16.48;;;11.77;;
69446;SDS011;56650;37.496;126.998;2022-07-23T09:43:36;16.75;;;11.57;;
69446;SDS011;56650;37.496;126.998;2022-07-23T09:46:22;16.23;;;12.10;;
69446;SDS011;56650;37.496;126.998;2022-07-23T09:48:55;16.08;;;11.57;;
69446;SDS011;56650;37.496;126.998;2022-07-23T09:51:24;15.75;;;11.02;;
69446;SDS011;56650;37.496;126.998;2022-07-23T09:54:02;16.27;;;11.57;;
69446;SDS011;56650;37.496;126.998;2022-07-23T09:58:55;16.02;;;11.35;;
69446;SDS011;56650;37.496;126.998;2022-07-23T10:01:37;17.55;;;11.32;;
69446;SDS011;56650;37.496;126.998;2022-07-23T10:04:03;17.10;;;11.55;;
69446;SDS011;56650;37.496;126.998;2022-07-23T10:06:31;17.13;;;11.82;;
69446;SDS011;56650;37.496;126.998;2022-07-23T10:08:58;16.13;;;11.02;;
69446;SDS011;56650;37.496;126.998;2022-07-23T10:11:25;16.63;;;11.52;;
69446;SDS011;56650;37.496;126.998;2022-07-23T10:13:53;15.43;;;11.13;;
69446;SDS011;56650;37.496;126.998;2022-07-23T10:16:19;15.90;;;11.43;;
69446;SDS011;56650;37.496;126.998;2022-07-23T10:18:49;17.00;;;11.48;;
69446;SDS011;56650;37.496;126.998;2022-07-23T10:21:25;16.25;;;11.50;;
69446;SDS011;56650;37.496;126.998;2022-07-23T10:24:12;15.50;;;11.25;;
69446;SDS011;56650;37.496;126.998;2022-07-23T10:34:57;14.57;;;10.60;;
69446;SDS011;56650;37.496;126.998;2022-07-23T10:37:28;17.58;;;12.20;;
69446;SDS011;56650;37.496;126.998;2022-07-23T10:42:36;16.33;;;11.43;;
69446;SDS011;56650;37.496;126.998;2022-07-23T10:45:08;16.15;;;10.73;;
69446;SDS011;56650;37.496;126.998;2022-07-23T10:50:23;15.38;;;10.98;;
69446;SDS011;56650;37.496;126.998;2022-07-23T10:58:00;15.30;;;11.30;;
69446;SDS011;56650;37.496;126.998;2022-07-23T11:00:27;14.82;;;10.65;;
69446;SDS011;56650;37.496;126.998;2022-07-23T11:03:00;15.38;;;11.43;;
69446;SDS011;56650;37.496;126.998;2022-07-23T11:05:43;16.13;;;11.20;;
69446;SDS011;56650;37.496;126.998;2022-07-23T11:08:11;16.65;;;11.02;;
69446;SDS011;56650;37.496;126.998;2022-07-23T11:31:52;14.55;;;10.50;;
69446;SDS011;56650;37.496;126.998;2022-07-23T11:36:51;15.60;;;10.73;;
69446;SDS011;56650;37.496;126.998;2022-07-23T11:39:17;16.13;;;11.40;;
69446;SDS011;56650;37.496;126.998;2022-07-23T11:41:44;14.57;;;10.68;;
69446;SDS011;56650;37.496;126.998;2022-07-23T11:44:32;15.95;;;10.93;;
69446;SDS011;56650;37.496;126.998;2022-07-23T11:47:00;15.40;;;10.98;;
69446;SDS011;56650;37.496;126.998;2022-07-23T11:49:27;15.45;;;10.65;;
69446;SDS011;56650;37.496;126.998;2022-07-23T11:52:09;15.27;;;10.88;;
69446;SDS011;56650;37.496;126.998;2022-07-23T11:54:37;15.63;;;11.18;;
69446;SDS011;56650;37.496;126.998;2022-07-23T11:57:12;15.73;;;10.80;;
69446;SDS011;56650;37.496;126.998;2022-07-23T11:59:38;16.48;;;11.75;;
69446;SDS011;56650;37.496;126.998;2022-07-23T12:04:40;15.32;;;11.00;;
69446;SDS011;56650;37.496;126.998;2022-07-23T12:09:51;14.80;;;10.55;;
69446;SDS011;56650;37.496;126.998;2022-07-23T12:12:17;14.38;;;10.35;;
69446;SDS011;56650;37.496;126.998;2022-07-23T12:17:09;15.38;;;10.75;;
69446;SDS011;56650;37.496;126.998;2022-07-23T12:19:36;15.90;;;10.77;;
69446;SDS011;56650;37.496;126.998;2022-07-23T12:22:02;16.02;;;10.75;;
69446;SDS011;56650;37.496;126.998;2022-07-23T12:27:12;14.95;;;10.55;;
69446;SDS011;56650;37.496;126.998;2022-07-23T12:29:39;16.55;;;11.10;;
69446;SDS011;56650;37.496;126.998;2022-07-23T12:34:31;15.50;;;10.60;;
69446;SDS011;56650;37.496;126.998;2022-07-23T12:36:57;15.25;;;10.25;;
69446;SDS011;56650;37.496;126.998;2022-07-23T12:39:30;15.00;;;10.57;;
69446;SDS011;56650;37.496;126.998;2022-07-23T12:41:57;15.82;;;10.98;;
69446;SDS011;56650;37.496;126.998;2022-07-23T12:44:23;14.15;;;10.45;;
69446;SDS011;56650;37.496;126.998;2022-07-23T12:46:50;15.68;;;10.60;;
69446;SDS011;56650;37.496;126.998;2022-07-23T12:49:26;15.43;;;10.93;;
69446;SDS011;56650;37.496;126.998;2022-07-23T12:51:52;14.95;;;10.82;;
69446;SDS011;56650;37.496;126.998;2022-07-23T12:56:44;14.65;;;10.23;;
69446;SDS011;56650;37.496;126.998;2022-07-23T12:59:11;13.70;;;10.00;;
69446;SDS011;56650;37.496;126.998;2022-07-23T13:01:41;16.48;;;10.38;;
69446;SDS011;56650;37.496;126.998;2022-07-23T13:04:18;14.68;;;10.43;;
69446;SDS011;56650;37.496;126.998;2022-07-23T13:09:12;15.63;;;10.25;;
69446;SDS011;56650;37.496;126.998;2022-07-23T13:11:42;14.15;;;9.85;;
69446;SDS011;56650;37.496;126.998;2022-07-23T13:14:08;13.45;;;9.57;;
69446;SDS011;56650;37.496;126.998;2022-07-23T13:16:35;14.20;;;10.20;;
69446;SDS011;56650;37.496;126.998;2022-07-23T13:19:02;15.93;;;10.48;;
69446;SDS011;56650;37.496;126.998;2022-07-23T13:21:28;15.77;;;10.95;;
69446;SDS011;56650;37.496;126.998;2022-07-23T13:23:55;14.00;;;10.23;;
69446;SDS011;56650;37.496;126.998;2022-07-23T13:26:21;14.77;;;10.75;;
69446;SDS011;56650;37.496;126.998;2022-07-23T13:28:47;14.93;;;10.68;;
69446;SDS011;56650;37.496;126.998;2022-07-23T13:31:14;14.57;;;9.77;;
69446;SDS011;56650;37.496;126.998;2022-07-23T13:33:40;15.45;;;11.02;;
69446;SDS011;56650;37.496;126.998;2022-07-23T13:36:06;14.88;;;10.25;;
69446;SDS011;56650;37.496;126.998;2022-07-23T13:40:59;15.43;;;10.10;;
69446;SDS011;56650;37.496;126.998;2022-07-23T13:43:26;16.10;;;10.35;;
69446;SDS011;56650;37.496;126.998;2022-07-23T13:45:52;13.88;;;9.63;;
69446;SDS011;56650;37.496;126.998;2022-07-23T13:48:19;13.38;;;10.18;;
69446;SDS011;56650;37.496;126.998;2022-07-23T13:50:46;15.88;;;10.65;;
69446;SDS011;56650;37.496;126.998;2022-07-23T13:53:19;14.35;;;9.98;;
69446;SDS011;56650;37.496;126.998;2022-07-23T13:55:46;16.00;;;10.48;;
69446;SDS011;56650;37.496;126.998;2022-07-23T13:58:13;14.25;;;10.23;;
69446;SDS011;56650;37.496;126.998;2022-07-23T14:00:40;15.45;;;10.30;;
69446;SDS011;56650;37.496;126.998;2022-07-23T14:03:07;15.35;;;10.23;;
69446;SDS011;56650;37.496;126.998;2022-07-23T14:05:34;14.90;;;10.27;;
69446;SDS011;56650;37.496;126.998;2022-07-23T14:08:00;14.25;;;9.75;;
69446;SDS011;56650;37.496;126.998;2022-07-23T14:10:26;15.77;;;10.27;;
69446;SDS011;56650;37.496;126.998;2022-07-23T14:12:53;14.80;;;10.18;;
69446;SDS011;56650;37.496;126.998;2022-07-23T14:15:23;15.57;;;9.70;;
69446;SDS011;56650;37.496;126.998;2022-07-23T14:17:50;13.65;;;9.98;;
69446;SDS011;56650;37.496;126.998;2022-07-23T14:20:16;13.75;;;9.98;;
69446;SDS011;56650;37.496;126.998;2022-07-23T14:25:09;14.77;;;10.30;;
69446;SDS011;56650;37.496;126.998;2022-07-23T14:27:35;13.93;;;9.75;;
69446;SDS011;56650;37.496;126.998;2022-07-23T14:30:03;14.00;;;9.05;;
69446;SDS011;56650;37.496;126.998;2022-07-23T14:32:30;13.70;;;9.90;;
69446;SDS011;56650;37.496;126.998;2022-07-23T14:34:56;13.70;;;10.15;;
69446;SDS011;56650;37.496;126.998;2022-07-23T14:37:22;13.95;;;9.50;;
69446;SDS011;56650;37.496;126.998;2022-07-23T14:39:50;14.05;;;9.80;;
69446;SDS011;56650;37.496;126.998;2022-07-23T14:42:17;13.98;;;9.20;;
69446;SDS011;56650;37.496;126.998;2022-07-23T14:44:43;13.48;;;9.55;;
69446;SDS011;56650;37.496;126.998;2022-07-23T14:49:35;14.43;;;9.93;;
69446;SDS011;56650;37.496;126.998;2022-07-23T14:52:02;14.07;;;9.68;;
69446;SDS011;56650;37.496;126.998;2022-07-23T14:54:29;14.73;;;10.40;;
69446;SDS011;56650;37.496;126.998;2022-07-23T14:59:21;14.18;;;10.02;;
69446;SDS011;56650;37.496;126.998;2022-07-23T15:01:48;14.13;;;9.88;;
69446;SDS011;56650;37.496;126.998;2022-07-23T15:04:14;13.25;;;9.45;;
69446;SDS011;56650;37.496;126.998;2022-07-23T15:09:06;12.98;;;9.40;;
69446;SDS011;56650;37.496;126.998;2022-07-23T15:11:32;14.63;;;10.32;;
69446;SDS011;56650;37.496;126.998;2022-07-23T15:14:03;14.48;;;9.90;;
69446;SDS011;56650;37.496;126.998;2022-07-23T15:16:29;14.15;;;9.90;;
69446;SDS011;56650;37.496;126.998;2022-07-23T15:18:55;13.75;;;9.60;;
69446;SDS011;56650;37.496;126.998;2022-07-23T15:21:22;14.23;;;9.98;;
69446;SDS011;56650;37.496;126.998;2022-07-23T15:23:48;13.82;;;9.60;;
69446;SDS011;56650;37.496;126.998;2022-07-23T15:26:14;13.30;;;9.27;;
69446;SDS011;56650;37.496;126.998;2022-07-23T15:28:41;13.80;;;9.55;;
69446;SDS011;56650;37.496;126.998;2022-07-23T15:31:07;14.15;;;9.63;;
69446;SDS011;56650;37.496;126.998;2022-07-23T15:33:34;13.65;;;9.27;;
69446;SDS011;56650;37.496;126.998;2022-07-23T15:36:01;13.68;;;9.40;;
69446;SDS011;56650;37.496;126.998;2022-07-23T15:38:27;14.15;;;9.43;;
69446;SDS011;56650;37.496;126.998;2022-07-23T15:40:56;12.57;;;8.90;;
69446;SDS011;56650;37.496;126.998;2022-07-23T15:43:23;12.63;;;8.55;;
69446;SDS011;56650;37.496;126.998;2022-07-23T15:45:49;12.65;;;9.13;;
69446;SDS011;56650;37.496;126.998;2022-07-23T15:48:16;13.70;;;9.15;;
69446;SDS011;56650;37.496;126.998;2022-07-23T15:50:43;14.02;;;9.60;;
69446;SDS011;56650;37.496;126.998;2022-07-23T15:53:09;11.63;;;8.50;;
69446;SDS011;56650;37.496;126.998;2022-07-23T15:55:36;13.15;;;9.27;;
69446;SDS011;56650;37.496;126.998;2022-07-23T15:58:04;14.02;;;9.52;;
69446;SDS011;56650;37.496;126.998;2022-07-23T16:00:30;13.10;;;9.57;;
69446;SDS011;56650;37.496;126.998;2022-07-23T16:02:56;12.52;;;8.80;;
69446;SDS011;56650;37.496;126.998;2022-07-23T16:05:23;12.52;;;8.73;;
69446;SDS011;56650;37.496;126.998;2022-07-23T16:07:49;13.48;;;9.45;;
69446;SDS011;56650;37.496;126.998;2022-07-23T16:10:15;12.80;;;9.10;;